Time,TemperatureF,DewpointF,PressureIn,WindDirection,WindDirectionDegrees,WindSpeedMPH,WindSpeedGustMPH,Humidity,HourlyPrecipIn,Conditions,Clouds,dailyrainin,SoftwareType,DateUTC
2013-02-12 00:00:00,34.3,34.0,29.75,ENE,68,0.0,0.0,99,0.00,,,0.00,VWS V14.01,2013-02-12 05:00:00,
2013-02-12 00:15:00,34.2,34.0,29.75,WNW,292,1.0,8.0,99,0.00,,,0.00,VWS V14.01,2013-02-12 05:15:00,
2013-02-12 00:30:00,36.7,36.7,29.75,West,270,4.0,10.0,100,0.00,,,0.00,VWS V14.01,2013-02-12 05:30:00,
2013-02-12 00:45:00,38.0,35.3,29.75,West,270,9.0,25.0,90,0.00,,,0.00,VWS V14.01,2013-02-12 05:45:00,
2013-02-12 01:00:00,39.3,30.7,29.76,West,270,10.0,21.0,71,0.00,,,0.00,VWS V14.01,2013-02-12 06:00:00,
2013-02-12 01:15:00,39.4,29.4,29.76,West,270,8.0,20.0,67,0.00,,,0.00,VWS V14.01,2013-02-12 06:15:00,
2013-02-12 01:30:00,39.4,28.2,29.76,West,270,9.0,21.0,64,0.00,,,0.00,VWS V14.01,2013-02-12 06:30:00,
2013-02-12 01:45:00,39.5,27.2,29.78,West,270,11.0,27.0,61,0.00,,,0.00,VWS V14.01,2013-02-12 06:45:00,
2013-02-12 02:00:00,39.4,27.1,29.79,West,270,10.0,23.0,61,0.00,,,0.00,VWS V14.01,2013-02-12 07:00:00,
2013-02-12 02:15:00,39.3,27.0,29.79,West,270,9.0,20.0,61,0.00,,,0.00,VWS V14.01,2013-02-12 07:15:00,
2013-02-12 02:30:00,39.3,27.4,29.79,West,270,9.0,19.0,62,0.00,,,0.00,VWS V14.01,2013-02-12 07:30:00,
2013-02-12 02:45:00,39.3,27.0,29.79,West,270,9.0,22.0,61,0.00,,,0.00,VWS V14.01,2013-02-12 07:45:00,
2013-02-12 03:00:00,39.1,27.2,29.79,West,270,9.0,19.0,62,0.00,,,0.00,VWS V14.01,2013-02-12 08:00:00,
2013-02-12 03:15:00,38.8,27.7,29.78,West,270,6.0,14.0,64,0.00,,,0.00,VWS V14.01,2013-02-12 08:15:00,
2013-02-12 03:30:00,38.7,27.6,29.79,West,270,6.0,13.0,64,0.00,,,0.00,VWS V14.01,2013-02-12 08:30:00,
2013-02-12 03:45:00,39.0,27.9,29.79,West,270,7.0,18.0,64,0.00,,,0.00,VWS V14.01,2013-02-12 08:45:00,
2013-02-12 04:00:00,38.8,27.7,29.80,West,270,7.0,16.0,64,0.00,,,0.00,VWS V14.01,2013-02-12 09:00:00,
2013-02-12 04:15:00,38.7,27.6,29.80,West,270,7.0,18.0,64,0.00,,,0.00,VWS V14.01,2013-02-12 09:15:00,
2013-02-12 04:30:00,38.5,27.0,29.81,West,270,7.0,20.0,63,0.00,,,0.00,VWS V14.01,2013-02-12 09:30:00,
2013-02-12 04:45:00,38.7,27.2,29.82,West,270,8.0,18.0,63,0.00,,,0.00,VWS V14.01,2013-02-12 09:45:00,
2013-02-12 05:00:00,38.5,27.0,29.81,West,270,8.0,19.0,63,0.00,,,0.00,VWS V14.01,2013-02-12 10:00:00,
2013-02-12 05:15:00,38.4,26.5,29.82,West,270,9.0,21.0,62,0.00,,,0.00,VWS V14.01,2013-02-12 10:15:00,
2013-02-12 05:29:00,38.4,26.5,29.82,WSW,244,7.0,8.0,62,0.00,,,0.00,VWS V14.01,2013-02-12 10:29:00,
2013-02-12 05:30:00,38.4,26.5,29.82,WNW,290,9.0,14.0,62,0.00,,,0.00,VWS V14.01,2013-02-12 10:30:00,
2013-02-12 05:34:00,38.4,26.5,29.82,WNW,300,6.0,18.0,62,0.00,,,0.00,VWS V14.01,2013-02-12 10:34:00,
2013-02-12 05:39:00,38.4,26.5,29.82,West,273,4.0,18.0,62,0.00,,,0.00,VWS V14.01,2013-02-12 10:39:00,
2013-02-12 05:44:00,38.2,26.3,29.82,WNW,283,9.0,18.0,62,0.00,,,0.00,VWS V14.01,2013-02-12 10:44:00,
2013-02-12 05:45:00,38.2,26.3,29.82,West,271,7.0,18.0,62,0.00,,,0.00,VWS V14.01,2013-02-12 10:45:00,
2013-02-12 05:49:00,38.2,26.3,29.82,West,266,7.0,16.0,62,0.00,,,0.00,VWS V14.01,2013-02-12 10:49:00,
2013-02-12 05:54:00,38.2,26.3,29.82,WNW,292,10.0,16.0,62,0.00,,,0.00,VWS V14.01,2013-02-12 10:54:00,
2013-02-12 05:59:00,38.2,26.3,29.82,West,273,4.0,16.0,62,0.00,,,0.00,VWS V14.01,2013-02-12 10:59:00,
2013-02-12 06:00:00,38.1,26.2,29.82,West,276,9.0,16.0,62,0.00,,,0.00,VWS V14.01,2013-02-12 11:00:00,
2013-02-12 06:04:00,38.1,26.2,29.82,West,268,8.0,12.0,62,0.00,,,0.00,VWS V14.01,2013-02-12 11:04:00,
2013-02-12 06:09:00,38.1,26.2,29.82,West,271,5.0,14.0,62,0.00,,,0.00,VWS V14.01,2013-02-12 11:09:00,
2013-02-12 06:14:00,38.0,26.5,29.82,West,275,8.0,18.0,63,0.00,,,0.00,VWS V14.01,2013-02-12 11:14:00,
2013-02-12 06:15:00,38.0,26.1,29.83,West,280,5.0,18.0,62,0.00,,,0.00,VWS V14.01,2013-02-12 11:15:00,
2013-02-12 06:19:00,38.0,26.5,29.83,West,269,6.0,11.0,63,0.00,,,0.00,VWS V14.01,2013-02-12 11:19:00,
2013-02-12 06:24:00,37.8,26.4,29.83,WSW,249,9.0,11.0,63,0.00,,,0.00,VWS V14.01,2013-02-12 11:24:00,
2013-02-12 06:29:00,37.8,26.4,29.83,WNW,296,5.0,18.0,63,0.00,,,0.00,VWS V14.01,2013-02-12 11:29:00,
2013-02-12 06:30:00,37.8,26.4,29.84,West,271,7.0,18.0,63,0.00,,,0.00,VWS V14.01,2013-02-12 11:30:00,
2013-02-12 06:34:00,37.8,26.4,29.84,WSW,239,5.0,11.0,63,0.00,,,0.00,VWS V14.01,2013-02-12 11:34:00,
2013-02-12 06:39:00,37.7,26.3,29.84,West,269,7.0,11.0,63,0.00,,,0.00,VWS V14.01,2013-02-12 11:39:00,
2013-02-12 06:44:00,37.7,26.3,29.84,WSW,246,3.0,13.0,63,0.00,,,0.00,VWS V14.01,2013-02-12 11:44:00,
2013-02-12 06:45:00,37.7,26.2,29.84,West,279,5.0,13.0,63,0.00,,,0.00,VWS V14.01,2013-02-12 11:45:00,
2013-02-12 06:49:00,37.7,26.3,29.84,West,260,4.0,13.0,63,0.00,,,0.00,VWS V14.01,2013-02-12 11:49:00,
2013-02-12 06:54:00,37.7,26.3,29.84,West,269,4.0,13.0,63,0.00,,,0.00,VWS V14.01,2013-02-12 11:54:00,
2013-02-12 06:59:00,37.5,26.1,29.84,West,259,5.0,13.0,63,0.00,,,0.00,VWS V14.01,2013-02-12 11:59:00,
2013-02-12 07:00:00,37.5,26.1,29.84,West,261,5.0,13.0,63,0.00,,,0.00,VWS V14.01,2013-02-12 12:00:00,
2013-02-12 07:04:00,37.5,26.1,29.84,West,260,1.0,9.0,63,0.00,,,0.00,VWS V14.01,2013-02-12 12:04:00,
2013-02-12 07:09:00,37.5,26.1,29.84,West,273,9.0,10.0,63,0.00,,,0.00,VWS V14.01,2013-02-12 12:09:00,
2013-02-12 07:14:00,37.5,26.1,29.84,West,278,4.0,10.0,63,0.00,,,0.00,VWS V14.01,2013-02-12 12:14:00,
2013-02-12 07:15:00,37.5,26.1,29.85,WSW,255,6.0,14.0,63,0.00,,,0.00,VWS V14.01,2013-02-12 12:15:00,
2013-02-12 07:19:00,37.5,26.1,29.85,West,279,4.0,8.0,63,0.00,,,0.00,VWS V14.01,2013-02-12 12:19:00,
2013-02-12 07:24:00,37.5,26.5,29.85,West,264,4.0,8.0,64,0.00,,,0.00,VWS V14.01,2013-02-12 12:24:00,
2013-02-12 07:29:00,37.5,26.1,29.85,WNW,286,5.0,11.0,63,0.00,,,0.00,VWS V14.01,2013-02-12 12:29:00,
2013-02-12 07:30:00,37.5,26.1,29.86,West,275,8.0,11.0,63,0.00,,,0.00,VWS V14.01,2013-02-12 12:30:00,
2013-02-12 07:34:00,37.5,26.1,29.86,West,274,7.0,9.0,63,0.00,,,0.00,VWS V14.01,2013-02-12 12:34:00,
2013-02-12 07:39:00,37.7,26.3,29.86,West,281,6.0,10.0,63,0.00,,,0.00,VWS V14.01,2013-02-12 12:39:00,
2013-02-12 07:44:00,37.7,26.3,29.86,West,267,5.0,10.0,63,0.00,,,0.00,VWS V14.01,2013-02-12 12:44:00,
2013-02-12 07:45:00,37.7,26.2,29.86,West,268,11.0,11.0,63,0.00,,,0.00,VWS V14.01,2013-02-12 12:45:00,
2013-02-12 07:49:00,37.7,26.3,29.86,WSW,245,10.0,11.0,63,0.00,,,0.00,VWS V14.01,2013-02-12 12:49:00,
2013-02-12 07:54:00,37.8,26.4,29.86,West,274,6.0,14.0,63,0.00,,,0.00,VWS V14.01,2013-02-12 12:54:00,
2013-02-12 07:59:00,37.8,26.4,29.86,West,263,6.0,14.0,63,0.00,,,0.00,VWS V14.01,2013-02-12 12:59:00,
2013-02-12 08:00:00,37.8,26.4,29.87,West,275,6.0,14.0,63,0.00,,,0.00,VWS V14.01,2013-02-12 13:00:00,
2013-02-12 08:04:00,38.0,26.1,29.87,WSW,247,8.0,13.0,62,0.00,,,0.00,VWS V14.01,2013-02-12 13:04:00,
2013-02-12 08:09:00,38.1,26.2,29.87,WSW,250,10.0,13.0,62,0.00,,,0.00,VWS V14.01,2013-02-12 13:09:00,
2013-02-12 08:14:00,38.1,26.2,29.87,West,263,9.0,13.0,62,0.00,,,0.00,VWS V14.01,2013-02-12 13:14:00,
2013-02-12 08:15:00,38.1,26.2,29.87,WNW,297,5.0,13.0,62,0.00,,,0.00,VWS V14.01,2013-02-12 13:15:00,
2013-02-12 08:19:00,38.1,25.9,29.87,West,271,11.0,14.0,61,0.00,,,0.00,VWS V14.01,2013-02-12 13:19:00,
2013-02-12 08:24:00,38.0,26.1,29.87,WSW,254,7.0,14.0,62,0.00,,,0.00,VWS V14.01,2013-02-12 13:24:00,
2013-02-12 08:29:00,38.0,26.1,29.87,WSW,247,8.0,16.0,62,0.00,,,0.00,VWS V14.01,2013-02-12 13:29:00,
2013-02-12 08:30:00,38.0,26.1,29.87,West,280,10.0,16.0,62,0.00,,,0.00,VWS V14.01,2013-02-12 13:30:00,
2013-02-12 08:34:00,38.1,25.9,29.87,West,275,9.0,13.0,61,0.00,,,0.00,VWS V14.01,2013-02-12 13:34:00,
2013-02-12 08:39:00,38.2,25.5,29.87,West,260,9.0,16.0,60,0.00,,,0.00,VWS V14.01,2013-02-12 13:39:00,
2013-02-12 08:44:00,38.4,26.1,29.87,West,265,11.0,16.0,61,0.00,,,0.00,VWS V14.01,2013-02-12 13:44:00,
2013-02-12 08:45:00,38.4,25.7,29.88,West,271,5.0,16.0,60,0.00,,,0.00,VWS V14.01,2013-02-12 13:45:00,
2013-02-12 08:49:00,38.5,25.8,29.88,West,263,9.0,14.0,60,0.00,,,0.00,VWS V14.01,2013-02-12 13:49:00,
2013-02-12 08:54:00,38.7,25.6,29.88,West,264,3.0,14.0,59,0.00,,,0.00,VWS V14.01,2013-02-12 13:54:00,
2013-02-12 08:59:00,38.8,25.7,29.88,WNW,285,7.0,15.0,59,0.00,,,0.00,VWS V14.01,2013-02-12 13:59:00,
2013-02-12 09:00:00,38.8,25.7,29.88,WSW,255,7.0,15.0,59,0.00,,,0.00,VWS V14.01,2013-02-12 14:00:00,
2013-02-12 09:04:00,39.0,26.3,29.88,West,265,11.0,12.0,60,0.00,,,0.00,VWS V14.01,2013-02-12 14:04:00,
2013-02-12 09:09:00,39.0,25.5,29.88,WSW,247,8.0,20.0,58,0.00,,,0.00,VWS V14.01,2013-02-12 14:09:00,
2013-02-12 09:14:00,39.1,26.0,29.88,WNW,289,4.0,20.0,59,0.00,,,0.00,VWS V14.01,2013-02-12 14:14:00,
2013-02-12 09:15:00,39.1,25.6,29.89,WSW,256,10.0,20.0,58,0.00,,,0.00,VWS V14.01,2013-02-12 14:15:00,
2013-02-12 09:19:00,39.3,25.8,29.89,SW,218,12.0,12.0,58,0.00,,,0.00,VWS V14.01,2013-02-12 14:19:00,
2013-02-12 09:24:00,39.3,25.8,29.89,West,266,7.0,13.0,58,0.00,,,0.00,VWS V14.01,2013-02-12 14:24:00,
2013-02-12 09:29:00,39.4,25.5,29.89,West,263,6.0,13.0,57,0.00,,,0.00,VWS V14.01,2013-02-12 14:29:00,
2013-02-12 09:30:00,39.4,25.5,29.89,West,265,12.0,23.0,57,0.00,,,0.00,VWS V14.01,2013-02-12 14:30:00,
2013-02-12 09:34:00,39.5,25.5,29.89,West,265,14.0,14.0,57,0.00,,,0.00,VWS V14.01,2013-02-12 14:34:00,
2013-02-12 09:39:00,39.5,25.5,29.89,WNW,297,7.0,16.0,57,0.00,,,0.00,VWS V14.01,2013-02-12 14:39:00,
2013-02-12 09:44:00,39.7,25.3,29.89,WSW,257,11.0,18.0,56,0.00,,,0.00,VWS V14.01,2013-02-12 14:44:00,
2013-02-12 09:45:00,39.7,25.7,29.89,NW,316,7.0,18.0,57,0.00,,,0.00,VWS V14.01,2013-02-12 14:45:00,
2013-02-12 09:49:00,39.7,25.7,29.89,West,273,9.0,16.0,57,0.00,,,0.00,VWS V14.01,2013-02-12 14:49:00,
2013-02-12 09:54:00,39.7,25.7,29.89,West,266,15.0,16.0,57,0.00,,,0.00,VWS V14.01,2013-02-12 14:54:00,
2013-02-12 09:59:00,39.7,25.7,29.89,West,269,7.0,16.0,57,0.00,,,0.00,VWS V14.01,2013-02-12 14:59:00,
2013-02-12 10:00:00,39.7,27.0,29.89,WNW,286,8.0,16.0,60,0.00,,,0.00,VWS V14.01,2013-02-12 15:00:00,
2013-02-12 10:04:00,39.7,25.7,29.89,West,262,5.0,20.0,57,0.00,,,0.00,VWS V14.01,2013-02-12 15:04:00,
2013-02-12 10:09:00,39.7,25.3,29.89,WNW,284,5.0,20.0,56,0.00,,,0.00,VWS V14.01,2013-02-12 15:09:00,
2013-02-12 10:14:00,39.7,25.7,29.89,SW,219,5.0,20.0,57,0.00,,,0.00,VWS V14.01,2013-02-12 15:14:00,
2013-02-12 10:15:00,39.7,25.7,29.90,West,279,8.0,20.0,57,0.00,,,0.00,VWS V14.01,2013-02-12 15:15:00,
2013-02-12 10:19:00,39.7,25.3,29.90,West,274,11.0,14.0,56,0.00,,,0.00,VWS V14.01,2013-02-12 15:19:00,
2013-02-12 10:24:00,39.8,25.8,29.90,West,262,7.0,14.0,57,0.00,,,0.00,VWS V14.01,2013-02-12 15:24:00,
2013-02-12 10:28:00,39.8,25.4,29.90,SW,232,0.0,14.0,56,0.00,,,0.00,VWS V14.01,2013-02-12 15:28:00,
2013-02-12 10:30:00,39.8,25.4,29.91,WSW,239,5.0,14.0,56,0.00,,,0.00,VWS V14.01,2013-02-12 15:30:00,
2013-02-12 10:33:00,39.8,25.8,29.91,WSW,250,13.0,16.0,57,0.00,,,0.00,VWS V14.01,2013-02-12 15:33:00,
2013-02-12 10:38:00,40.0,26.0,29.91,WSW,255,5.0,16.0,57,0.00,,,0.00,VWS V14.01,2013-02-12 15:38:00,
2013-02-12 10:43:00,40.0,26.0,29.91,West,276,9.0,18.0,57,0.00,,,0.00,VWS V14.01,2013-02-12 15:43:00,
2013-02-12 10:45:00,39.8,25.8,29.90,WSW,244,8.0,18.0,57,0.00,,,0.00,VWS V14.01,2013-02-12 15:45:00,
2013-02-12 10:48:00,39.7,25.7,29.90,West,264,9.0,14.0,57,0.00,,,0.00,VWS V14.01,2013-02-12 15:48:00,
2013-02-12 10:53:00,39.7,25.7,29.90,West,267,6.0,16.0,57,0.00,,,0.00,VWS V14.01,2013-02-12 15:53:00,
2013-02-12 10:58:00,39.7,25.7,29.90,WNW,285,6.0,16.0,57,0.00,,,0.00,VWS V14.01,2013-02-12 15:58:00,
2013-02-12 11:00:00,39.7,25.7,29.91,WSW,254,10.0,16.0,57,0.00,,,0.00,VWS V14.01,2013-02-12 16:00:00,
2013-02-12 11:03:00,39.7,25.7,29.91,WNW,290,7.0,15.0,57,0.00,,,0.00,VWS V14.01,2013-02-12 16:03:00,
2013-02-12 11:08:00,39.7,25.7,29.91,West,278,10.0,19.0,57,0.00,,,0.00,VWS V14.01,2013-02-12 16:08:00,
2013-02-12 11:13:00,39.7,25.7,29.91,West,273,6.0,19.0,57,0.00,,,0.00,VWS V14.01,2013-02-12 16:13:00,
2013-02-12 11:15:00,39.7,25.7,29.92,NW,320,7.0,19.0,57,0.00,,,0.00,VWS V14.01,2013-02-12 16:15:00,
2013-02-12 11:18:00,39.7,25.7,29.92,West,277,12.0,16.0,57,0.00,,,0.00,VWS V14.01,2013-02-12 16:18:00,
2013-02-12 11:23:00,39.7,25.7,29.92,SW,233,9.0,16.0,57,0.00,,,0.00,VWS V14.01,2013-02-12 16:23:00,
2013-02-12 11:28:00,39.7,25.7,29.92,West,265,13.0,16.0,57,0.00,,,0.00,VWS V14.01,2013-02-12 16:28:00,
2013-02-12 11:30:00,39.5,25.5,29.92,WSW,253,10.0,20.0,57,0.00,,,0.00,VWS V14.01,2013-02-12 16:30:00,
2013-02-12 11:33:00,39.5,25.5,29.92,WSW,246,7.0,13.0,57,0.00,,,0.00,VWS V14.01,2013-02-12 16:33:00,
2013-02-12 11:38:00,39.5,25.5,29.92,WNW,282,11.0,18.0,57,0.00,,,0.00,VWS V14.01,2013-02-12 16:38:00,
2013-02-12 11:43:00,39.5,26.0,29.92,West,276,13.0,18.0,58,0.00,,,0.00,VWS V14.01,2013-02-12 16:43:00,
2013-02-12 11:45:00,39.5,25.5,29.92,West,269,9.0,18.0,57,0.00,,,0.00,VWS V14.01,2013-02-12 16:45:00,
2013-02-12 11:48:00,39.5,25.5,29.92,WSW,245,11.0,13.0,57,0.00,,,0.00,VWS V14.01,2013-02-12 16:48:00,
2013-02-12 11:53:00,39.5,25.5,29.92,West,266,6.0,13.0,57,0.00,,,0.00,VWS V14.01,2013-02-12 16:53:00,
2013-02-12 11:58:00,39.5,26.0,29.92,WSW,255,5.0,13.0,58,0.00,,,0.00,VWS V14.01,2013-02-12 16:58:00,
2013-02-12 12:00:00,39.5,25.5,29.92,WNW,289,10.0,16.0,57,0.00,,,0.00,VWS V14.01,2013-02-12 17:00:00,
2013-02-12 12:03:00,39.5,25.5,29.92,West,269,7.0,13.0,57,0.00,,,0.00,VWS V14.01,2013-02-12 17:03:00,
2013-02-12 12:08:00,39.4,25.5,29.92,WNW,286,8.0,21.0,57,0.00,,,0.00,VWS V14.01,2013-02-12 17:08:00,
2013-02-12 12:13:00,39.5,26.0,29.92,West,270,9.0,21.0,58,0.00,,,0.00,VWS V14.01,2013-02-12 17:13:00,
2013-02-12 12:15:00,39.7,26.1,29.93,West,267,12.0,21.0,58,0.00,,,0.00,VWS V14.01,2013-02-12 17:15:00,
2013-02-12 12:18:00,39.7,25.7,29.93,WSW,254,7.0,14.0,57,0.00,,,0.00,VWS V14.01,2013-02-12 17:18:00,
2013-02-12 12:23:00,40.0,26.0,29.93,West,271,10.0,14.0,57,0.00,,,0.00,VWS V14.01,2013-02-12 17:23:00,
2013-02-12 12:28:00,39.8,25.8,29.93,WSW,258,9.0,16.0,57,0.00,,,0.00,VWS V14.01,2013-02-12 17:28:00,
2013-02-12 12:30:00,39.8,25.4,29.93,West,266,13.0,19.0,56,0.00,,,0.00,VWS V14.01,2013-02-12 17:30:00,
2013-02-12 12:33:00,39.8,25.4,29.93,West,271,15.0,18.0,56,0.00,,,0.00,VWS V14.01,2013-02-12 17:33:00,
2013-02-12 12:38:00,39.7,25.7,29.93,West,259,5.0,18.0,57,0.00,,,0.00,VWS V14.01,2013-02-12 17:38:00,
2013-02-12 12:43:00,39.8,25.4,29.93,West,267,7.0,20.0,56,0.00,,,0.00,VWS V14.01,2013-02-12 17:43:00,
2013-02-12 12:45:00,39.8,25.4,29.93,SW,233,9.0,20.0,56,0.00,,,0.00,VWS V14.01,2013-02-12 17:45:00,
2013-02-12 12:48:00,40.1,25.7,29.93,WNW,283,12.0,13.0,56,0.00,,,0.00,VWS V14.01,2013-02-12 17:48:00,
2013-02-12 12:53:00,40.3,25.0,29.93,NW,304,4.0,13.0,54,0.00,,,0.00,VWS V14.01,2013-02-12 17:53:00,
2013-02-12 12:58:00,40.5,25.6,29.93,SW,236,2.0,13.0,55,0.00,,,0.00,VWS V14.01,2013-02-12 17:58:00,
2013-02-12 13:00:00,40.4,25.1,29.92,WSW,246,5.0,16.0,54,0.00,,,0.00,VWS V14.01,2013-02-12 18:00:00,
2013-02-12 13:03:00,40.4,25.1,29.92,WSW,244,5.0,12.0,54,0.00,,,0.00,VWS V14.01,2013-02-12 18:03:00,
2013-02-12 13:08:00,40.3,25.0,29.92,West,275,6.0,20.0,54,0.00,,,0.00,VWS V14.01,2013-02-12 18:08:00,
2013-02-12 13:13:00,40.4,25.1,29.92,WNW,293,7.0,20.0,54,0.00,,,0.00,VWS V14.01,2013-02-12 18:13:00,
2013-02-12 13:15:00,40.5,25.6,29.92,NW,317,8.0,20.0,55,0.00,,,0.00,VWS V14.01,2013-02-12 18:15:00,
2013-02-12 13:18:00,40.5,25.2,29.92,WSW,254,7.0,11.0,54,0.00,,,0.00,VWS V14.01,2013-02-12 18:18:00,
2013-02-12 13:23:00,40.4,26.0,29.92,West,261,5.0,13.0,56,0.00,,,0.00,VWS V14.01,2013-02-12 18:23:00,
2013-02-12 13:28:00,40.0,25.6,29.92,WSW,257,10.0,16.0,56,0.00,,,0.00,VWS V14.01,2013-02-12 18:28:00,
2013-02-12 13:30:00,40.0,25.6,29.92,West,263,10.0,16.0,56,0.00,,,0.00,VWS V14.01,2013-02-12 18:30:00,
2013-02-12 13:33:00,40.0,26.0,29.92,WSW,254,10.0,11.0,57,0.00,,,0.00,VWS V14.01,2013-02-12 18:33:00,
2013-02-12 13:38:00,39.8,25.8,29.92,WNW,284,11.0,15.0,57,0.00,,,0.00,VWS V14.01,2013-02-12 18:38:00,
2013-02-12 13:43:00,39.7,25.7,29.92,West,266,6.0,21.0,57,0.00,,,0.00,VWS V14.01,2013-02-12 18:43:00,
2013-02-12 13:45:00,39.7,25.7,29.92,WSW,248,12.0,21.0,57,0.00,,,0.00,VWS V14.01,2013-02-12 18:45:00,
2013-02-12 13:48:00,39.5,25.5,29.92,WNW,284,6.0,16.0,57,0.00,,,0.00,VWS V14.01,2013-02-12 18:48:00,
2013-02-12 13:53:00,39.7,25.7,29.92,WSW,256,9.0,16.0,57,0.00,,,0.00,VWS V14.01,2013-02-12 18:53:00,
2013-02-12 13:58:00,39.7,25.7,29.92,West,281,9.0,16.0,57,0.00,,,0.00,VWS V14.01,2013-02-12 18:58:00,
2013-02-12 14:00:00,39.7,25.7,29.92,West,279,11.0,16.0,57,0.00,,,0.00,VWS V14.01,2013-02-12 19:00:00,
2013-02-12 14:03:00,39.7,25.7,29.92,WSW,257,9.0,20.0,57,0.00,,,0.00,VWS V14.01,2013-02-12 19:03:00,
2013-02-12 14:08:00,39.7,25.7,29.92,West,267,10.0,20.0,57,0.00,,,0.00,VWS V14.01,2013-02-12 19:08:00,
2013-02-12 14:13:00,39.8,25.8,29.92,West,279,7.0,20.0,57,0.00,,,0.00,VWS V14.01,2013-02-12 19:13:00,
2013-02-12 14:15:00,39.8,25.8,29.91,West,263,5.0,20.0,57,0.00,,,0.00,VWS V14.01,2013-02-12 19:15:00,
2013-02-12 14:18:00,39.8,25.8,29.91,WSW,251,6.0,12.0,57,0.00,,,0.00,VWS V14.01,2013-02-12 19:18:00,
2013-02-12 14:23:00,39.8,25.8,29.91,West,271,5.0,13.0,57,0.00,,,0.00,VWS V14.01,2013-02-12 19:23:00,
2013-02-12 14:28:00,39.8,25.4,29.91,West,263,16.0,19.0,56,0.00,,,0.00,VWS V14.01,2013-02-12 19:28:00,
2013-02-12 14:30:00,39.8,25.4,29.91,West,271,4.0,19.0,56,0.00,,,0.00,VWS V14.01,2013-02-12 19:30:00,
2013-02-12 14:33:00,39.8,25.8,29.91,WNW,295,5.0,10.0,57,0.00,,,0.00,VWS V14.01,2013-02-12 19:33:00,
2013-02-12 14:38:00,39.8,25.4,29.91,NW,313,2.0,10.0,56,0.00,,,0.00,VWS V14.01,2013-02-12 19:38:00,
2013-02-12 14:43:00,39.8,25.8,29.91,WSW,244,8.0,12.0,57,0.00,,,0.00,VWS V14.01,2013-02-12 19:43:00,
2013-02-12 14:45:00,39.8,25.8,29.90,West,278,4.0,12.0,57,0.00,,,0.00,VWS V14.01,2013-02-12 19:45:00,
2013-02-12 14:48:00,39.8,25.8,29.90,West,280,8.0,13.0,57,0.00,,,0.00,VWS V14.01,2013-02-12 19:48:00,
2013-02-12 14:53:00,39.5,25.5,29.90,WSW,250,7.0,15.0,57,0.00,,,0.00,VWS V14.01,2013-02-12 19:53:00,
2013-02-12 14:58:00,39.4,25.9,29.90,SW,229,9.0,15.0,58,0.00,,,0.00,VWS V14.01,2013-02-12 19:58:00,
2013-02-12 15:00:00,39.3,25.8,29.90,WSW,247,6.0,15.0,58,0.00,,,0.00,VWS V14.01,2013-02-12 20:00:00,
2013-02-12 15:03:00,39.1,26.0,29.90,West,259,7.0,10.0,59,0.00,,,0.00,VWS V14.01,2013-02-12 20:03:00,
2013-02-12 15:08:00,39.1,25.6,29.90,WNW,302,8.0,14.0,58,0.00,,,0.00,VWS V14.01,2013-02-12 20:08:00,
2013-02-12 15:13:00,39.1,26.0,29.90,West,276,6.0,14.0,59,0.00,,,0.00,VWS V14.01,2013-02-12 20:13:00,
2013-02-12 15:15:00,39.1,26.0,29.90,West,265,12.0,14.0,59,0.00,,,0.00,VWS V14.01,2013-02-12 20:15:00,
2013-02-12 15:18:00,39.1,25.6,29.90,West,264,1.0,15.0,58,0.00,,,0.00,VWS V14.01,2013-02-12 20:18:00,
2013-02-12 15:23:00,39.3,25.8,29.90,West,269,9.0,15.0,58,0.00,,,0.00,VWS V14.01,2013-02-12 20:23:00,
2013-02-12 15:28:00,39.3,25.8,29.90,West,266,8.0,18.0,58,0.00,,,0.00,VWS V14.01,2013-02-12 20:28:00,
2013-02-12 15:30:00,39.1,25.6,29.90,West,260,11.0,18.0,58,0.00,,,0.00,VWS V14.01,2013-02-12 20:30:00,
2013-02-12 15:33:00,39.1,26.0,29.90,WSW,254,5.0,11.0,59,0.00,,,0.00,VWS V14.01,2013-02-12 20:33:00,
2013-02-12 15:38:00,39.0,25.9,29.90,WSW,246,5.0,13.0,59,0.00,,,0.00,VWS V14.01,2013-02-12 20:38:00,
2013-02-12 15:43:00,38.8,26.1,29.90,West,267,8.0,13.0,60,0.00,,,0.00,VWS V14.01,2013-02-12 20:43:00,
2013-02-12 15:45:00,38.8,26.1,29.89,West,269,7.0,14.0,60,0.00,,,0.00,VWS V14.01,2013-02-12 20:45:00,
2013-02-12 15:48:00,38.7,25.6,29.89,WNW,295,5.0,13.0,59,0.00,,,0.00,VWS V14.01,2013-02-12 20:48:00,
2013-02-12 15:53:00,38.7,26.0,29.89,West,269,7.0,13.0,60,0.00,,,0.00,VWS V14.01,2013-02-12 20:53:00,
2013-02-12 15:58:00,38.5,25.8,29.89,West,275,6.0,13.0,60,0.00,,,0.00,VWS V14.01,2013-02-12 20:58:00,
2013-02-12 16:00:00,38.5,25.8,29.87,NW,325,2.0,13.0,60,0.00,,,0.00,VWS V14.01,2013-02-12 21:00:00,
2013-02-12 16:03:00,38.5,25.8,29.87,SW,232,4.0,9.0,60,0.00,,,0.00,VWS V14.01,2013-02-12 21:03:00,
2013-02-12 16:08:00,38.5,25.8,29.87,WSW,255,4.0,10.0,60,0.00,,,0.00,VWS V14.01,2013-02-12 21:08:00,
2013-02-12 16:13:00,38.4,25.3,29.87,North,360,5.0,10.0,59,0.00,,,0.00,VWS V14.01,2013-02-12 21:13:00,
2013-02-12 16:15:00,38.5,25.4,29.85,West,281,1.0,10.0,59,0.00,,,0.00,VWS V14.01,2013-02-12 21:15:00,
2013-02-12 16:18:00,38.5,25.4,29.85,West,277,8.0,9.0,59,0.00,,,0.00,VWS V14.01,2013-02-12 21:18:00,
2013-02-12 16:23:00,38.5,25.4,29.85,West,267,5.0,9.0,59,0.00,,,0.00,VWS V14.01,2013-02-12 21:23:00,
2013-02-12 16:28:00,38.4,25.3,29.85,West,276,4.0,9.0,59,0.00,,,0.00,VWS V14.01,2013-02-12 21:28:00,
2013-02-12 16:30:00,38.4,25.7,29.85,West,276,2.0,9.0,60,0.00,,,0.00,VWS V14.01,2013-02-12 21:30:00,
2013-02-12 16:33:00,38.4,25.3,29.85,West,279,5.0,9.0,59,0.00,,,0.00,VWS V14.01,2013-02-12 21:33:00,
2013-02-12 16:38:00,38.2,25.1,29.85,WSW,250,5.0,11.0,59,0.00,,,0.00,VWS V14.01,2013-02-12 21:38:00,
2013-02-12 16:43:00,38.2,25.5,29.85,WNW,286,4.0,11.0,60,0.00,,,0.00,VWS V14.01,2013-02-12 21:43:00,
2013-02-12 16:45:00,38.1,25.9,29.89,WSW,246,6.0,11.0,61,0.00,,,0.00,VWS V14.01,2013-02-12 21:45:00,
2013-02-12 16:48:00,38.1,25.5,29.89,West,272,6.0,8.0,60,0.00,,,0.00,VWS V14.01,2013-02-12 21:48:00,
2013-02-12 16:53:00,38.0,25.8,29.89,West,279,6.0,8.0,61,0.00,,,0.00,VWS V14.01,2013-02-12 21:53:00,
2013-02-12 16:58:00,38.0,25.8,29.89,West,261,2.0,8.0,61,0.00,,,0.00,VWS V14.01,2013-02-12 21:58:00,
2013-02-12 17:00:00,38.0,25.4,29.90,West,279,2.0,10.0,60,0.00,,,0.00,VWS V14.01,2013-02-12 22:00:00,
2013-02-12 17:03:00,37.8,25.2,29.90,SW,230,6.0,11.0,60,0.00,,,0.00,VWS V14.01,2013-02-12 22:03:00,
2013-02-12 17:08:00,37.8,25.2,29.90,West,281,4.0,11.0,60,0.00,,,0.00,VWS V14.01,2013-02-12 22:08:00,
2013-02-12 17:13:00,37.8,25.2,29.90,WSW,258,2.0,11.0,60,0.00,,,0.00,VWS V14.01,2013-02-12 22:13:00,
2013-02-12 17:15:00,37.8,25.6,29.91,West,271,4.0,11.0,61,0.00,,,0.00,VWS V14.01,2013-02-12 22:15:00,
2013-02-12 17:18:00,37.8,25.6,29.91,West,266,1.0,5.0,61,0.00,,,0.00,VWS V14.01,2013-02-12 22:18:00,
2013-02-12 17:23:00,37.7,25.5,29.91,West,274,6.0,8.0,61,0.00,,,0.00,VWS V14.01,2013-02-12 22:23:00,
2013-02-12 17:28:00,37.7,25.5,29.91,SW,225,8.0,12.0,61,0.00,,,0.00,VWS V14.01,2013-02-12 22:28:00,
2013-02-12 17:30:00,37.8,25.2,29.96,WSW,253,8.0,12.0,60,0.00,,,0.00,VWS V14.01,2013-02-12 22:30:00,
2013-02-12 17:33:00,37.8,25.2,29.96,WSW,240,8.0,9.0,60,0.00,,,0.00,VWS V14.01,2013-02-12 22:33:00,
2013-02-12 17:38:00,37.8,25.2,29.96,West,280,0.0,9.0,60,0.00,,,0.00,VWS V14.01,2013-02-12 22:38:00,
2013-02-12 17:43:00,37.8,25.2,29.96,WSW,257,9.0,10.0,60,0.00,,,0.00,VWS V14.01,2013-02-12 22:43:00,
2013-02-12 17:45:00,37.7,25.1,29.96,West,281,4.0,11.0,60,0.00,,,0.00,VWS V14.01,2013-02-12 22:45:00,
2013-02-12 17:48:00,37.7,25.1,29.96,WSW,246,12.0,12.0,60,0.00,,,0.00,VWS V14.01,2013-02-12 22:48:00,
2013-02-12 17:53:00,37.7,25.1,29.96,West,267,5.0,13.0,60,0.00,,,0.00,VWS V14.01,2013-02-12 22:53:00,
2013-02-12 17:58:00,37.5,24.9,29.96,West,259,7.0,13.0,60,0.00,,,0.00,VWS V14.01,2013-02-12 22:58:00,
2013-02-12 18:00:00,37.5,24.9,29.99,WSW,241,8.0,13.0,60,0.00,,,0.00,VWS V14.01,2013-02-12 23:00:00,
2013-02-12 18:03:00,37.5,25.3,29.99,West,278,5.0,9.0,61,0.00,,,0.00,VWS V14.01,2013-02-12 23:03:00,
2013-02-12 18:08:00,37.5,24.9,29.99,West,281,10.0,11.0,60,0.00,,,0.00,VWS V14.01,2013-02-12 23:08:00,
2013-02-12 18:13:00,37.5,24.9,29.99,West,273,10.0,11.0,60,0.00,,,0.00,VWS V14.01,2013-02-12 23:13:00,
2013-02-12 18:15:00,37.5,24.9,29.97,West,263,4.0,11.0,60,0.00,,,0.00,VWS V14.01,2013-02-12 23:15:00,
2013-02-12 18:18:00,37.5,24.9,29.97,WSW,252,4.0,8.0,60,0.00,,,0.00,VWS V14.01,2013-02-12 23:18:00,
2013-02-12 18:23:00,37.4,25.2,29.97,West,279,5.0,10.0,61,0.00,,,0.00,VWS V14.01,2013-02-12 23:23:00,
2013-02-12 18:28:00,37.4,25.2,29.97,West,279,6.0,12.0,61,0.00,,,0.00,VWS V14.01,2013-02-12 23:28:00,
2013-02-12 18:30:00,37.4,24.8,29.98,WNW,284,8.0,12.0,60,0.00,,,0.00,VWS V14.01,2013-02-12 23:30:00,
2013-02-12 18:33:00,37.4,25.2,29.98,West,279,6.0,11.0,61,0.00,,,0.00,VWS V14.01,2013-02-12 23:33:00,
2013-02-12 18:38:00,37.2,25.0,29.98,WSW,256,10.0,11.0,61,0.00,,,0.00,VWS V14.01,2013-02-12 23:38:00,
2013-02-12 18:43:00,37.2,25.0,29.98,West,275,6.0,11.0,61,0.00,,,0.00,VWS V14.01,2013-02-12 23:43:00,
2013-02-12 18:45:00,37.1,24.9,29.97,West,281,0.0,11.0,61,0.00,,,0.00,VWS V14.01,2013-02-12 23:45:00,
2013-02-12 18:48:00,37.1,24.9,29.97,WSW,253,0.0,6.0,61,0.00,,,0.00,VWS V14.01,2013-02-12 23:48:00,
2013-02-12 18:53:00,37.0,25.2,29.97,West,271,7.0,14.0,62,0.00,,,0.00,VWS V14.01,2013-02-12 23:53:00,
2013-02-12 18:58:00,37.1,24.9,29.97,WNW,282,5.0,14.0,61,0.00,,,0.00,VWS V14.01,2013-02-12 23:58:00,
2013-02-12 19:00:00,37.1,24.9,29.98,West,273,8.0,14.0,61,0.00,,,0.00,VWS V14.01,2013-02-13 00:00:00,
2013-02-12 19:03:00,37.0,24.8,29.98,WSW,240,0.0,8.0,61,0.00,,,0.00,VWS V14.01,2013-02-13 00:03:00,
2013-02-12 19:08:00,37.0,24.8,29.98,West,273,5.0,8.0,61,0.00,,,0.00,VWS V14.01,2013-02-13 00:08:00,
2013-02-12 19:13:00,37.0,24.8,29.98,West,275,7.0,11.0,61,0.00,,,0.00,VWS V14.01,2013-02-13 00:13:00,
2013-02-12 19:15:00,37.0,24.8,29.98,NW,306,9.0,11.0,61,0.00,,,0.00,VWS V14.01,2013-02-13 00:15:00,
2013-02-12 19:18:00,37.0,24.8,29.98,West,271,2.0,9.0,61,0.00,,,0.00,VWS V14.01,2013-02-13 00:18:00,
2013-02-12 19:23:00,37.0,24.8,29.98,WSW,253,4.0,9.0,61,0.00,,,0.00,VWS V14.01,2013-02-13 00:23:00,
2013-02-12 19:28:00,36.8,24.6,29.98,WNW,298,0.0,9.0,61,0.00,,,0.00,VWS V14.01,2013-02-13 00:28:00,
2013-02-12 19:30:00,36.8,25.0,29.98,WNW,298,5.0,9.0,62,0.00,,,0.00,VWS V14.01,2013-02-13 00:30:00,
2013-02-12 19:33:00,36.8,24.6,29.98,WNW,298,0.0,5.0,61,0.00,,,0.00,VWS V14.01,2013-02-13 00:33:00,
2013-02-12 19:38:00,36.8,25.0,29.98,WNW,298,0.0,5.0,62,0.00,,,0.00,VWS V14.01,2013-02-13 00:38:00,
2013-02-12 19:43:00,36.7,25.3,29.98,WNW,298,0.0,6.0,63,0.00,,,0.00,VWS V14.01,2013-02-13 00:43:00,
2013-02-12 19:45:00,36.5,25.1,29.98,WNW,298,0.0,6.0,63,0.00,,,0.00,VWS V14.01,2013-02-13 00:45:00,
2013-02-12 19:48:00,36.5,25.1,29.98,WNW,298,0.0,0.0,63,0.00,,,0.00,VWS V14.01,2013-02-13 00:48:00,
2013-02-12 19:53:00,36.4,25.0,29.98,West,263,4.0,5.0,63,0.00,,,0.00,VWS V14.01,2013-02-13 00:53:00,
2013-02-12 19:58:00,36.4,25.0,29.98,WSW,250,0.0,7.0,63,0.00,,,0.00,VWS V14.01,2013-02-13 00:58:00,
2013-02-12 20:00:00,36.2,24.8,29.97,WSW,253,0.0,7.0,63,0.00,,,0.00,VWS V14.01,2013-02-13 01:00:00,
2013-02-12 20:03:00,36.2,24.8,29.97,WSW,253,0.0,5.0,63,0.00,,,0.00,VWS V14.01,2013-02-13 01:03:00,
2013-02-12 20:08:00,36.2,24.8,29.97,WSW,254,0.0,5.0,63,0.00,,,0.00,VWS V14.01,2013-02-13 01:08:00,
2013-02-12 20:12:00,36.1,24.7,29.97,WSW,252,7.0,7.0,63,0.00,,,0.00,VWS V14.01,2013-02-13 01:12:00,
2013-02-12 20:15:00,36.1,24.7,29.98,West,260,0.0,8.0,63,0.00,,,0.00,VWS V14.01,2013-02-13 01:15:00,
2013-02-12 20:17:00,36.1,24.7,29.98,West,260,1.0,3.0,63,0.00,,,0.00,VWS V14.01,2013-02-13 01:17:00,
2013-02-12 20:22:00,36.0,25.0,29.98,West,260,2.0,4.0,64,0.00,,,0.00,VWS V14.01,2013-02-13 01:22:00,
2013-02-12 20:27:00,35.8,24.8,29.98,West,260,0.0,4.0,64,0.00,,,0.00,VWS V14.01,2013-02-13 01:27:00,
2013-02-12 20:30:00,35.7,24.7,29.96,West,260,0.0,4.0,64,0.00,,,0.00,VWS V14.01,2013-02-13 01:30:00,
2013-02-12 20:32:00,35.7,24.7,29.96,West,260,0.0,0.0,64,0.00,,,0.00,VWS V14.01,2013-02-13 01:32:00,
2013-02-12 20:37:00,35.5,24.5,29.96,West,260,0.0,0.0,64,0.00,,,0.00,VWS V14.01,2013-02-13 01:37:00,
2013-02-12 20:42:00,35.5,24.9,29.96,West,260,0.0,0.0,65,0.00,,,0.00,VWS V14.01,2013-02-13 01:42:00,
2013-02-12 20:45:00,35.4,24.8,29.95,West,260,0.0,0.0,65,0.00,,,0.00,VWS V14.01,2013-02-13 01:45:00,
2013-02-12 20:47:00,35.4,24.8,29.95,West,260,0.0,0.0,65,0.00,,,0.00,VWS V14.01,2013-02-13 01:47:00,
2013-02-12 20:52:00,35.2,24.6,29.95,West,260,0.0,0.0,65,0.00,,,0.00,VWS V14.01,2013-02-13 01:52:00,
2013-02-12 20:57:00,34.9,24.7,29.95,West,260,0.0,0.0,66,0.00,,,0.00,VWS V14.01,2013-02-13 01:57:00,
2013-02-12 21:00:00,34.6,24.4,29.95,West,260,0.0,0.0,66,0.00,,,0.00,VWS V14.01,2013-02-13 02:00:00,
2013-02-12 21:02:00,34.6,24.4,29.95,West,260,0.0,0.0,66,0.00,,,0.00,VWS V14.01,2013-02-13 02:02:00,
2013-02-12 21:07:00,34.3,24.5,29.95,West,260,0.0,0.0,67,0.00,,,0.00,VWS V14.01,2013-02-13 02:07:00,
2013-02-12 21:12:00,34.0,24.6,29.95,West,260,0.0,0.0,68,0.00,,,0.00,VWS V14.01,2013-02-13 02:12:00,
2013-02-12 21:15:00,33.7,24.6,29.94,West,260,0.0,0.0,69,0.00,,,0.00,VWS V14.01,2013-02-13 02:15:00,
2013-02-12 21:20:00,33.4,25.0,29.94,West,260,0.0,0.0,71,0.00,,,0.00,VWS V14.01,2013-02-13 02:20:00,
2013-02-12 21:25:00,33.0,25.3,29.94,West,260,0.0,0.0,73,0.00,,,0.00,VWS V14.01,2013-02-13 02:25:00,
2013-02-12 21:30:00,32.7,25.0,29.94,West,260,0.0,0.0,73,0.00,,,0.00,VWS V14.01,2013-02-13 02:30:00,
2013-02-12 21:35:00,32.4,24.7,29.93,West,260,0.0,0.0,73,0.00,,,0.00,VWS V14.01,2013-02-13 02:35:00,
2013-02-12 21:40:00,32.1,24.8,29.93,West,260,0.0,0.0,74,0.00,,,0.00,VWS V14.01,2013-02-13 02:40:00,
2013-02-12 21:45:00,32.0,25.0,29.93,West,260,0.0,2.0,75,0.00,,,0.00,VWS V14.01,2013-02-13 02:45:00,
2013-02-12 21:50:00,31.8,24.5,29.94,West,260,0.0,1.0,74,0.00,,,0.00,VWS V14.01,2013-02-13 02:50:00,
2013-02-12 21:55:00,31.7,24.4,29.94,West,260,0.0,1.0,74,0.00,,,0.00,VWS V14.01,2013-02-13 02:55:00,
2013-02-12 22:00:00,31.7,24.4,29.94,West,260,0.0,1.0,74,0.00,,,0.00,VWS V14.01,2013-02-13 03:00:00,
2013-02-12 22:05:00,31.8,24.1,29.94,West,263,4.0,6.0,73,0.00,,,0.00,VWS V14.01,2013-02-13 03:05:00,
2013-02-12 22:10:00,32.3,24.3,29.94,West,262,2.0,6.0,72,0.00,,,0.00,VWS V14.01,2013-02-13 03:10:00,
2013-02-12 22:14:00,32.7,24.4,29.94,WSW,256,0.0,6.0,71,0.00,,,0.00,VWS V14.01,2013-02-13 03:14:00,
2013-02-12 22:15:00,32.7,24.4,29.93,WSW,248,2.0,6.0,71,0.00,,,0.00,VWS V14.01,2013-02-13 03:15:00,
2013-02-12 22:19:00,32.6,24.9,29.93,WSW,256,0.0,0.0,73,0.00,,,0.00,VWS V14.01,2013-02-13 03:19:00,
2013-02-12 22:24:00,32.3,25.0,29.93,WSW,256,0.0,0.0,74,0.00,,,0.00,VWS V14.01,2013-02-13 03:24:00,
2013-02-12 22:29:00,32.1,24.8,29.93,WSW,256,0.0,0.0,74,0.00,,,0.00,VWS V14.01,2013-02-13 03:29:00,
2013-02-12 22:30:00,32.0,25.0,29.93,WSW,248,0.0,0.0,75,0.00,,,0.00,VWS V14.01,2013-02-13 03:30:00,
2013-02-12 22:34:00,31.8,24.8,29.93,WSW,256,0.0,0.0,75,0.00,,,0.00,VWS V14.01,2013-02-13 03:34:00,
2013-02-12 22:39:00,31.7,24.7,29.93,WSW,256,0.0,0.0,75,0.00,,,0.00,VWS V14.01,2013-02-13 03:39:00,
2013-02-12 22:44:00,31.5,24.8,29.93,WSW,256,0.0,0.0,76,0.00,,,0.00,VWS V14.01,2013-02-13 03:44:00,
2013-02-12 22:45:00,31.4,24.7,29.93,WSW,248,0.0,2.0,76,0.00,,,0.00,VWS V14.01,2013-02-13 03:45:00,
2013-02-12 22:49:00,31.2,24.8,29.93,WSW,256,0.0,2.0,77,0.00,,,0.00,VWS V14.01,2013-02-13 03:49:00,
2013-02-12 22:54:00,31.1,24.8,29.93,WSW,256,0.0,2.0,77,0.00,,,0.00,VWS V14.01,2013-02-13 03:54:00,
2013-02-12 22:59:00,30.8,24.5,29.93,WSW,256,0.0,2.0,77,0.00,,,0.00,VWS V14.01,2013-02-13 03:59:00,
2013-02-12 23:00:00,30.8,24.5,29.93,WSW,248,0.0,2.0,77,0.00,,,0.00,VWS V14.01,2013-02-13 04:00:00,
2013-02-12 23:04:00,30.6,24.3,29.93,WSW,256,0.0,0.0,77,0.00,,,0.00,VWS V14.01,2013-02-13 04:04:00,
2013-02-12 23:09:00,30.5,24.2,29.93,WSW,256,0.0,0.0,77,0.00,,,0.00,VWS V14.01,2013-02-13 04:09:00,
2013-02-12 23:14:00,30.3,24.3,29.93,WSW,256,0.0,0.0,78,0.00,,,0.00,VWS V14.01,2013-02-13 04:14:00,
2013-02-12 23:15:00,30.2,24.5,29.94,WSW,248,0.0,0.0,79,0.00,,,0.00,VWS V14.01,2013-02-13 04:15:00,
2013-02-12 23:19:00,30.0,24.3,29.94,WSW,256,0.0,0.0,79,0.00,,,0.00,VWS V14.01,2013-02-13 04:19:00,
2013-02-12 23:24:00,29.9,24.5,29.94,WSW,256,0.0,0.0,80,0.00,,,0.00,VWS V14.01,2013-02-13 04:24:00,
2013-02-12 23:29:00,29.7,24.6,29.94,WSW,256,0.0,0.0,81,0.00,,,0.00,VWS V14.01,2013-02-13 04:29:00,
2013-02-12 23:30:00,29.6,24.5,29.94,WSW,248,0.0,0.0,81,0.00,,,0.00,VWS V14.01,2013-02-13 04:30:00,
2013-02-12 23:34:00,29.5,24.4,29.94,WSW,256,0.0,0.0,81,0.00,,,0.00,VWS V14.01,2013-02-13 04:34:00,
2013-02-12 23:39:00,29.3,24.5,29.94,WSW,256,0.0,0.0,82,0.00,,,0.00,VWS V14.01,2013-02-13 04:39:00,
2013-02-12 23:44:00,29.0,24.5,29.94,WSW,256,0.0,0.0,83,0.00,,,0.00,VWS V14.01,2013-02-13 04:44:00,
2013-02-12 23:45:00,29.0,24.5,29.95,WSW,248,0.0,0.0,83,0.00,,,0.00,VWS V14.01,2013-02-13 04:45:00,
2013-02-12 23:49:00,28.9,24.4,29.95,WSW,256,0.0,0.0,83,0.00,,,0.00,VWS V14.01,2013-02-13 04:49:00,
2013-02-12 23:54:00,28.7,24.5,29.95,WSW,256,0.0,0.0,84,0.00,,,0.00,VWS V14.01,2013-02-13 04:54:00,
2013-02-12 23:59:00,28.6,24.4,29.95,WSW,256,0.0,0.0,84,0.00,,,0.00,VWS V14.01,2013-02-13 04:59:00,